Norbeck, South Dakota
Current Conditions -  °F | °C
As of 10:53 AM on Tuesday 27 Jan 2015 (Local Time) from KABR Reporting Station
Clear Clear  
Wind Chill: 30°   Ceiling: Unl
Heat Index: 38°   Visibility: 10mi
Dew Point: 33°   Wind: 12mph
Humidity: 83%   Direction: 180°S
Pressure: 30.01"   Gusts: NA
Location:  45.0672°N, 99.0996°W
Report Text: KABR 271653Z AUTO 18010KT 10SM CLR 03/01 A3001 RMK AO2 SLP176 T00330006
Loading
Personal Weather Stations






























Interactive Weather Map New forecast layout! Learn more

10-Day Weather Forecast

Advertisements
Track Severe Weather on mobile